Time;durP1;ratioP1;P1;durP2;ratioP2;P2;SDS_P1;SDS_P2;PMS_P1;PMS_P2;Temp;Humidity;BMP_temperature;BMP_pressure;BME280_temperature;BME280_humidity;BME280_pressure;Samples;Min_cycle;Max_cycle;Signal;HPM_P1;HPM_P2
2022/01/09 00:01:42;;;;;;;5.93;1.60;;;8.60;99.90;;;;;;5053631;28;20099;-81
2022/01/09 00:04:09;;;;;;;4.15;1.27;;;8.50;99.90;;;;;;5054008;28;20029;-80
2022/01/09 00:06:35;;;;;;;7.15;1.50;;;8.50;99.90;;;;;;5053872;28;20069;-81
2022/01/09 00:09:01;;;;;;;8.25;1.30;;;8.60;99.90;;;;;;5054088;28;20032;-80
2022/01/09 00:11:27;;;;;;;6.45;1.40;;;8.60;99.90;;;;;;5053612;28;20170;-81
2022/01/09 00:13:54;;;;;;;8.05;1.80;;;8.50;99.90;;;;;;5053541;28;20100;-80
2022/01/09 00:16:22;;;;;;;;;;;8.60;99.90;;;;;;5053851;28;20105;-80
2022/01/09 00:18:50;;;;;;;6.50;1.73;;;8.60;99.90;;;;;;5053221;28;20390;-80
2022/01/09 00:21:17;;;;;;;4.47;1.50;;;8.50;99.90;;;;;;5053551;28;20036;-80
2022/01/09 00:23:45;;;;;;;4.68;1.20;;;8.50;99.90;;;;;;5053225;28;20032;-80
2022/01/09 00:26:12;;;;;;;6.28;1.25;;;8.50;99.90;;;;;;5053076;28;20468;-80
2022/01/09 00:28:38;;;;;;;5.35;1.20;;;8.50;99.90;;;;;;5053224;28;20036;-79
2022/01/09 00:31:04;;;;;;;5.73;1.20;;;8.40;99.90;;;;;;5053401;28;20029;-81
2022/01/09 00:33:30;;;;;;;4.25;1.30;;;8.50;99.90;;;;;;5052968;28;20075;-80
2022/01/09 00:35:56;;;;;;;5.43;1.40;;;8.40;99.90;;;;;;5053378;28;20033;-81
2022/01/09 00:38:22;;;;;;;6.18;1.88;;;8.40;99.90;;;;;;5053080;28;20268;-81
2022/01/09 00:40:48;;;;;;;10.82;1.60;;;8.50;99.90;;;;;;5052614;28;20043;-80
2022/01/09 00:43:14;;;;;;;6.67;1.63;;;8.50;99.90;;;;;;5052500;28;20354;-81
2022/01/09 00:45:42;;;;;;;3.33;1.08;;;8.50;99.90;;;;;;5052782;28;20037;-80
2022/01/09 00:48:08;;;;;;;;;;;8.40;99.90;;;;;;5053584;28;20035;-80
2022/01/09 00:50:36;;;;;;;4.60;1.35;;;8.40;99.90;;;;;;5052788;28;19905;-81
2022/01/09 00:53:04;;;;;;;5.85;1.45;;;8.30;99.90;;;;;;5052581;28;20021;-80
2022/01/09 00:55:31;;;;;;;5.20;1.40;;;8.20;99.90;;;;;;5052680;28;20342;-80
2022/01/09 00:57:57;;;;;;;5.78;1.52;;;8.20;99.90;;;;;;5052740;28;20032;-80
2022/01/09 01:00:23;;;;;;;7.15;1.30;;;8.10;99.90;;;;;;5052826;28;20035;-80
2022/01/09 01:02:49;;;;;;;8.30;1.38;;;8.20;99.90;;;;;;5052726;28;20045;-80
2022/01/09 01:05:16;;;;;;;6.35;1.90;;;8.20;99.90;;;;;;5052604;28;20092;-80
2022/01/09 01:07:42;;;;;;;8.52;1.30;;;8.20;99.90;;;;;;5052911;28;20083;-80
2022/01/09 01:10:08;;;;;;;3.38;1.08;;;8.30;99.90;;;;;;5052776;28;20139;-79
2022/01/09 01:12:34;;;;;;;2.00;1.13;;;8.30;99.90;;;;;;5052474;28;20449;-80
2022/01/09 01:15:01;;;;;;;6.43;1.23;;;8.40;99.90;;;;;;5052581;28;20096;-80
2022/01/09 01:17:27;;;;;;;4.20;1.15;;;8.50;99.90;;;;;;5052701;28;20100;-81
2022/01/09 01:20:05;;;;;;;3.22;1.10;;;8.50;99.90;;;;;;5052301;28;20037;-80
2022/01/09 01:22:32;;;;;;;5.15;1.20;;;8.50;99.90;;;;;;5052395;28;20074;-80
2022/01/09 01:24:59;;;;;;;4.25;1.50;;;8.40;99.90;;;;;;5052020;28;20374;-79
2022/01/09 01:27:26;;;;;;;3.30;1.13;;;8.40;99.90;;;;;;5052375;28;20021;-80
2022/01/09 01:29:52;;;;;;;2.65;0.80;;;8.40;99.90;;;;;;5052469;28;20469;-81
2022/01/09 01:32:18;;;;;;;4.65;1.27;;;8.40;99.90;;;;;;5052318;28;20029;-80
2022/01/09 01:34:44;;;;;;;4.45;1.23;;;8.50;99.90;;;;;;5052454;28;20094;-80
2022/01/09 01:37:10;;;;;;;4.88;1.30;;;8.50;99.90;;;;;;5052116;28;20031;-80
2022/01/09 01:39:36;;;;;;;8.52;1.45;;;8.50;99.90;;;;;;5052553;28;20025;-80
2022/01/09 01:42:02;;;;;;;3.83;1.20;;;8.40;99.90;;;;;;5052365;28;20068;-80
2022/01/09 01:44:39;;;;;;;7.50;1.33;;;8.40;99.90;;;;;;5051982;28;20074;-79
2022/01/09 01:47:06;;;;;;;4.50;1.13;;;8.30;99.90;;;;;;5052077;28;20059;-80
2022/01/09 01:49:32;;;;;;;4.77;1.27;;;8.30;99.90;;;;;;5051857;28;20037;-79
2022/01/09 01:51:58;;;;;;;3.58;1.00;;;8.30;99.90;;;;;;5052245;28;20104;-80
2022/01/09 01:54:25;;;;;;;3.28;0.90;;;8.30;99.90;;;;;;5051759;28;20039;-79
2022/01/09 01:56:52;;;;;;;2.53;0.90;;;8.30;99.90;;;;;;5051949;28;20024;-79
2022/01/09 01:59:18;;;;;;;3.03;1.00;;;8.30;99.90;;;;;;5052056;28;20111;-79
2022/01/09 02:01:44;;;;;;;8.90;1.20;;;8.30;99.90;;;;;;5051604;28;20075;-79
2022/01/09 02:04:10;;;;;;;5.15;1.10;;;8.40;99.90;;;;;;5051336;28;20060;-80
2022/01/09 02:06:36;;;;;;;3.15;0.82;;;8.40;99.90;;;;;;5051879;28;20021;-80
2022/01/09 02:09:06;;;;;;;4.75;1.00;;;8.50;99.90;;;;;;5051472;28;20101;-79
2022/01/09 02:11:33;;;;;;;5.53;1.00;;;8.50;99.90;;;;;;5051485;28;20107;-79
2022/01/09 02:13:59;;;;;;;5.53;1.02;;;8.60;99.90;;;;;;5051544;28;20499;-79
2022/01/09 02:16:26;;;;;;;4.45;0.90;;;8.60;99.90;;;;;;5051236;28;20047;-79
2022/01/09 02:18:52;;;;;;;4.22;1.00;;;8.70;99.90;;;;;;5051282;28;20052;-80
2022/01/09 02:21:18;;;;;;;5.63;0.93;;;8.70;99.90;;;;;;5051551;28;20029;-79
2022/01/09 02:23:47;;;;;;;4.53;1.10;;;8.80;99.90;;;;;;5032994;28;20029;-80
2022/01/09 02:26:21;;;;;;;2.88;0.77;;;8.80;99.90;;;;;;5051054;28;20397;-80
2022/01/09 02:28:48;;;;;;;2.70;0.82;;;8.70;99.90;;;;;;5051226;28;20025;-80
2022/01/09 02:31:15;;;;;;;1.98;0.70;;;8.70;99.90;;;;;;5051371;28;20028;-81
2022/01/09 02:33:41;;;;;;;;;;;8.60;99.90;;;;;;5051374;28;20488;-80
2022/01/09 02:36:08;;;;;;;2.75;0.77;;;8.60;99.90;;;;;;5050829;28;19951;-80
2022/01/09 02:38:34;;;;;;;3.30;0.93;;;8.60;99.90;;;;;;5050716;28;20430;-79
2022/01/09 02:41:00;;;;;;;3.05;0.93;;;8.50;99.90;;;;;;5051080;28;20091;-80
2022/01/09 02:43:26;;;;;;;4.87;0.90;;;8.50;99.90;;;;;;5050994;28;20083;-80
2022/01/09 02:48:34;;;;;;;4.82;0.90;;;8.50;99.90;;;;;;5050953;28;20404;-80
2022/01/09 02:51:09;;;;;;;2.38;0.88;;;8.50;99.90;;;;;;5050711;28;20124;-80
2022/01/09 02:53:37;;;;;;;2.00;0.82;;;8.50;99.90;;;;;;5050533;28;20029;-80
2022/01/09 02:56:05;;;;;;;2.55;0.77;;;8.40;99.90;;;;;;5050930;28;20472;-80
2022/01/09 02:58:33;;;;;;;6.32;1.05;;;8.40;99.90;;;;;;5050548;28;20082;-80
2022/01/09 03:01:00;;;;;;;2.63;1.35;;;8.40;99.90;;;;;;5050967;28;20216;-80
2022/01/09 03:03:26;;;;;;;4.70;1.00;;;8.40;99.90;;;;;;5050359;28;20052;-80
2022/01/09 03:05:52;;;;;;;4.10;1.00;;;8.40;99.90;;;;;;5050516;28;20029;-79
2022/01/09 03:08:18;;;;;;;5.28;1.20;;;8.40;99.90;;;;;;5050256;28;20029;-80
2022/01/09 03:10:44;;;;;;;5.10;0.80;;;8.40;99.90;;;;;;5050793;28;20520;-80
2022/01/09 03:13:11;;;;;;;2.95;0.88;;;8.30;99.90;;;;;;5050856;28;20025;-80
2022/01/09 03:15:37;;;;;;;4.47;0.85;;;8.40;99.90;;;;;;5051547;28;20362;-80
2022/01/09 03:18:03;;;;;;;4.22;0.95;;;8.30;99.90;;;;;;5054585;28;20071;-80
2022/01/09 03:20:29;;;;;;;5.80;1.10;;;8.40;99.90;;;;;;5054145;28;20033;-81
2022/01/09 03:22:56;;;;;;;5.17;0.90;;;8.40;99.90;;;;;;5054317;28;20426;-80
2022/01/09 03:25:23;;;;;;;5.10;1.05;;;8.50;99.90;;;;;;5054531;28;20330;-80
2022/01/09 03:27:50;;;;;;;2.30;0.77;;;8.50;99.90;;;;;;5054136;28;20100;-80
2022/01/09 03:30:18;;;;;;;3.60;0.75;;;8.60;99.90;;;;;;5054354;28;20556;-80
2022/01/09 03:32:45;;;;;;;2.92;0.65;;;8.60;99.90;;;;;;5054230;28;20029;-80
2022/01/09 03:35:14;;;;;;;3.58;0.60;;;8.80;99.90;;;;;;5054204;28;20037;-80
2022/01/09 03:37:42;;;;;;;4.25;1.00;;;8.80;99.90;;;;;;5054217;28;20025;-80
2022/01/09 03:40:11;;;;;;;3.65;0.65;;;8.70;99.90;;;;;;5054165;28;20048;-80
2022/01/09 03:42:37;;;;;;;5.22;0.85;;;8.80;99.90;;;;;;5054044;28;20091;-80
2022/01/09 03:45:05;;;;;;;4.05;0.85;;;8.80;99.90;;;;;;5054134;28;20040;-80
2022/01/09 03:47:32;;;;;;;7.20;0.90;;;8.80;99.90;;;;;;5053757;28;20060;-80
2022/01/09 03:49:58;;;;;;;6.72;0.98;;;8.60;99.90;;;;;;5053970;28;20178;-80
2022/01/09 03:52:27;;;;;;;7.53;1.15;;;8.50;99.90;;;;;;5053842;28;20514;-80
2022/01/09 03:54:55;;;;;;;5.53;1.42;;;8.40;99.90;;;;;;5054067;28;20111;-80
2022/01/09 03:57:21;;;;;;;2.60;0.68;;;8.30;99.90;;;;;;5053989;28;20421;-80
2022/01/09 03:59:48;;;;;;;7.45;0.90;;;8.30;99.90;;;;;;5035394;28;20131;-80
2022/01/09 04:02:14;;;;;;;6.63;0.93;;;8.30;99.90;;;;;;5053280;28;20045;-80
2022/01/09 04:04:40;;;;;;;3.70;0.73;;;8.40;99.90;;;;;;5053685;28;20120;-79
2022/01/09 04:07:06;;;;;;;2.22;0.60;;;8.50;99.90;;;;;;5053366;28;20040;-80
2022/01/09 04:09:40;;;;;;;5.75;1.13;;;8.80;99.90;;;;;;5053578;28;20108;-80
2022/01/09 04:12:28;;;;;;;3.38;0.70;;;8.90;99.90;;;;;;5053628;28;20444;-78
2022/01/09 04:14:54;;;;;;;4.72;1.00;;;9.00;99.90;;;;;;5053303;28;20060;-79
2022/01/09 04:17:35;;;;;;;3.05;0.60;;;9.10;99.90;;;;;;5053261;28;20040;-79
2022/01/09 04:20:01;;;;;;;5.03;0.88;;;9.30;99.90;;;;;;5053015;28;20106;-79
2022/01/09 04:22:27;;;;;;;3.15;1.10;;;9.40;99.90;;;;;;5053013;28;20020;-79
2022/01/09 04:24:53;;;;;;;6.15;0.82;;;9.40;99.90;;;;;;5053368;28;20056;-80
2022/01/09 04:27:19;;;;;;;7.07;0.77;;;9.40;99.90;;;;;;5052785;28;20482;-80
2022/01/09 04:29:45;;;;;;;3.17;0.70;;;9.40;99.90;;;;;;5053481;28;20031;-80
2022/01/09 04:32:11;;;;;;;6.75;0.80;;;9.50;99.90;;;;;;5053122;28;20044;-80
2022/01/09 04:34:37;;;;;;;4.10;0.75;;;9.60;99.90;;;;;;5053153;28;20179;-80
2022/01/09 04:37:04;;;;;;;5.60;0.93;;;9.60;99.90;;;;;;5052929;28;20120;-80
2022/01/09 04:39:30;;;;;;;2.53;0.70;;;9.60;99.90;;;;;;5052711;28;20029;-80
2022/01/09 04:41:56;;;;;;;2.45;0.80;;;9.60;99.90;;;;;;5052900;28;20049;-80
2022/01/09 04:44:23;;;;;;;3.55;0.80;;;9.70;99.90;;;;;;5052466;28;20032;-79
2022/01/09 04:46:57;;;;;;;4.63;1.05;;;9.80;99.90;;;;;;5052544;28;20086;-79
2022/01/09 04:49:27;;;;;;;5.25;1.00;;;9.80;99.90;;;;;;5051639;28;20051;-79
2022/01/09 04:51:54;;;;;;;2.83;0.80;;;9.70;99.90;;;;;;5050753;28;20087;-80
2022/01/09 04:54:20;;;;;;;;;;;9.70;99.90;;;;;;5051575;28;20076;-78
2022/01/09 04:56:46;;;;;;;2.50;0.90;;;9.70;99.90;;;;;;5052950;28;19905;-79
2022/01/09 04:59:12;;;;;;;3.05;0.75;;;9.70;99.90;;;;;;5052669;28;20506;-79
2022/01/09 05:01:38;;;;;;;5.35;1.00;;;9.60;99.90;;;;;;5052451;28;20051;-79
2022/01/09 05:04:04;;;;;;;4.05;0.82;;;9.70;99.90;;;;;;5052631;28;20074;-79
2022/01/09 05:06:30;;;;;;;9.63;1.47;;;9.70;99.90;;;;;;5052215;28;20033;-79
2022/01/09 05:08:56;;;;;;;5.85;0.90;;;9.70;99.90;;;;;;5052096;28;20111;-79
2022/01/09 05:11:22;;;;;;;2.22;0.95;;;9.70;99.90;;;;;;5052142;28;20104;-80
2022/01/09 05:13:48;;;;;;;4.00;0.90;;;9.60;99.90;;;;;;5052037;28;20056;-79
2022/01/09 05:16:14;;;;;;;6.75;1.23;;;9.60;99.90;;;;;;5052032;28;20508;-79
2022/01/09 05:18:51;;;;;;;3.53;1.08;;;9.50;99.90;;;;;;5033946;28;20031;-79
2022/01/09 05:21:17;;;;;;;5.30;0.88;;;9.50;99.90;;;;;;5052022;28;20099;-81
2022/01/09 05:23:44;;;;;;;7.20;0.80;;;9.40;99.90;;;;;;5052006;28;20116;-79
2022/01/09 05:26:10;;;;;;;7.25;0.90;;;9.50;99.90;;;;;;5052047;28;20453;-79
2022/01/09 05:28:36;;;;;;;4.55;0.90;;;9.50;99.90;;;;;;5052638;28;20338;-80
2022/01/09 05:31:02;;;;;;;4.78;0.90;;;9.50;99.90;;;;;;5051173;28;20029;-80
2022/01/09 05:33:29;;;;;;;6.07;0.80;;;9.40;99.90;;;;;;5051669;28;20100;-79
2022/01/09 05:35:55;;;;;;;3.15;0.60;;;9.30;99.90;;;;;;5052065;28;20442;-79
2022/01/09 05:38:21;;;;;;;1.77;0.70;;;9.30;99.90;;;;;;5051007;28;20035;-78
2022/01/09 05:40:47;;;;;;;7.93;0.98;;;9.20;99.90;;;;;;5051629;28;20029;-79
2022/01/09 05:43:14;;;;;;;6.05;1.00;;;9.20;99.90;;;;;;5033373;28;20040;-79
2022/01/09 05:45:40;;;;;;;;;;;9.20;99.90;;;;;;5052069;28;20041;-79
2022/01/09 05:48:07;;;;;;;3.60;1.00;;;9.20;99.90;;;;;;5051340;28;19928;-80
2022/01/09 05:50:34;;;;;;;6.53;0.95;;;9.20;99.90;;;;;;5051797;28;20107;-80
2022/01/09 05:53:00;;;;;;;9.82;1.27;;;9.30;99.90;;;;;;5051521;28;20020;-78
2022/01/09 05:55:26;;;;;;;5.85;0.90;;;9.20;99.90;;;;;;5051334;28;20459;-80
2022/01/09 05:57:53;;;;;;;2.47;0.70;;;9.20;99.90;;;;;;5050482;28;20024;-80
2022/01/09 06:00:19;;;;;;;8.75;0.98;;;9.20;99.90;;;;;;5051422;28;20067;-80
2022/01/09 06:02:45;;;;;;;7.65;0.95;;;9.30;99.90;;;;;;5051068;28;20063;-79
2022/01/09 06:05:11;;;;;;;3.22;0.73;;;9.20;99.90;;;;;;5051349;28;20088;-79
2022/01/09 06:07:42;;;;;;;5.72;1.05;;;9.30;99.90;;;;;;5051103;28;20111;-79
2022/01/09 06:10:10;;;;;;;5.75;1.30;;;9.30;99.90;;;;;;5051443;28;20437;-80
2022/01/09 06:12:37;;;;;;;4.10;0.90;;;9.30;99.90;;;;;;5051106;28;20109;-74
2022/01/09 06:15:04;;;;;;;6.60;1.13;;;9.40;99.90;;;;;;5049709;28;20669;-80
2022/01/09 06:17:36;;;;;;;4.32;0.90;;;9.30;99.90;;;;;;5049439;28;20025;-77
2022/01/09 06:20:03;;;;;;;3.95;0.90;;;9.30;99.90;;;;;;5050748;28;20036;-77
2022/01/09 06:22:29;;;;;;;6.50;1.10;;;9.40;99.90;;;;;;5050967;28;20077;-77
2022/01/09 06:24:55;;;;;;;4.78;0.90;;;9.50;99.90;;;;;;5051211;28;20130;-77
2022/01/09 06:27:21;;;;;;;6.72;0.90;;;9.70;99.90;;;;;;5051015;28;20139;-76
2022/01/09 06:29:48;;;;;;;3.33;0.80;;;9.80;99.90;;;;;;5050666;28;20063;-76
2022/01/09 06:32:14;;;;;;;9.65;1.45;;;9.70;99.90;;;;;;5050908;28;20031;-77
2022/01/09 06:34:41;;;;;;;7.82;1.20;;;9.60;99.90;;;;;;5050646;28;20056;-76
2022/01/09 06:37:08;;;;;;;4.13;0.90;;;9.60;99.90;;;;;;5049823;28;20073;-76
2022/01/09 06:39:34;;;;;;;10.38;1.85;;;9.50;99.90;;;;;;5050528;28;20029;-76
2022/01/09 06:42:02;;;;;;;5.97;1.05;;;9.40;99.90;;;;;;5050429;28;20060;-77
2022/01/09 06:44:28;;;;;;;5.57;0.90;;;9.40;99.90;;;;;;5050368;28;20103;-77
2022/01/09 06:46:54;;;;;;;5.78;0.93;;;9.40;99.90;;;;;;5050530;28;20341;-77
2022/01/09 06:49:20;;;;;;;7.50;1.30;;;9.40;99.90;;;;;;5050568;28;20124;-77
2022/01/09 06:51:46;;;;;;;5.80;1.10;;;9.40;99.90;;;;;;5050755;28;20078;-77
2022/01/09 06:54:13;;;;;;;12.32;2.33;;;9.40;99.90;;;;;;5050465;28;20445;-77
2022/01/09 06:56:40;;;;;;;7.10;1.00;;;9.70;99.90;;;;;;5032353;28;20029;-76
2022/01/09 06:59:06;;;;;;;3.50;0.80;;;10.50;99.90;;;;;;5032520;28;20033;-79
2022/01/09 07:01:34;;;;;;;4.93;1.05;;;11.40;99.90;;;;;;5050404;28;20154;-78
2022/01/09 07:04:00;;;;;;;4.80;1.15;;;12.40;99.90;;;;;;5050573;28;20090;-78
2022/01/09 07:06:26;;;;;;;7.57;1.33;;;13.40;99.90;;;;;;5050793;28;20386;-78
2022/01/09 07:08:58;;;;;;;2.88;0.90;;;14.30;99.90;;;;;;5050360;28;20099;-78
2022/01/09 07:11:24;;;;;;;9.13;1.20;;;15.00;99.70;;;;;;5050523;28;20028;-77
2022/01/09 07:13:50;;;;;;;10.80;1.70;;;15.20;99.50;;;;;;5050134;28;20025;-77
2022/01/09 07:16:16;;;;;;;6.93;1.10;;;15.40;98.90;;;;;;5050272;28;20453;-77
2022/01/09 07:18:42;;;;;;;4.07;0.90;;;15.10;99.00;;;;;;5050938;28;20025;-78
2022/01/09 07:21:08;;;;;;;6.90;0.90;;;14.90;99.90;;;;;;5050426;28;20041;-77
2022/01/09 07:23:34;;;;;;;6.63;1.52;;;14.70;99.70;;;;;;5050433;28;20029;-79
2022/01/09 07:26:01;;;;;;;7.25;1.30;;;14.50;99.90;;;;;;5050627;28;20033;-77
2022/01/09 07:28:27;;;;;;;8.37;1.07;;;14.20;99.90;;;;;;5050351;28;20127;-77
2022/01/09 07:30:53;;;;;;;8.33;1.17;;;14.40;99.90;;;;;;5032114;28;20029;-77
2022/01/09 07:33:19;;;;;;;8.33;1.03;;;14.80;99.80;;;;;;5050398;28;20278;-77
2022/01/09 07:35:45;;;;;;;5.73;1.03;;;15.50;99.30;;;;;;5050554;28;20481;-77
2022/01/09 07:38:11;;;;;;;6.93;1.63;;;16.60;99.30;;;;;;5050502;28;20024;-77
2022/01/09 07:40:37;;;;;;;11.55;1.33;;;16.70;98.50;;;;;;5050475;28;20317;-76
2022/01/09 07:43:03;;;;;;;5.50;1.20;;;17.60;96.10;;;;;;5050477;28;20435;-77
2022/01/09 07:45:30;;;;;;;8.02;1.40;;;18.20;95.00;;;;;;5050071;28;20400;-77
2022/01/09 07:47:58;;;;;;;7.68;1.55;;;18.50;97.70;;;;;;5050296;28;20021;-78
2022/01/09 07:50:26;;;;;;;6.07;1.20;;;18.10;94.00;;;;;;5050411;28;20449;-78
2022/01/09 07:52:59;;;;;;;7.38;1.65;;;17.80;95.10;;;;;;5050213;28;20096;-77
2022/01/09 07:55:25;;;;;;;8.02;1.20;;;17.30;95.00;;;;;;5050148;28;20393;-78
2022/01/09 07:57:51;;;;;;;8.82;1.55;;;17.00;95.30;;;;;;5050395;28;20500;-78
2022/01/09 08:00:19;;;;;;;5.13;1.27;;;16.50;96.20;;;;;;5050170;28;20025;-78
2022/01/09 08:02:46;;;;;;;6.32;1.70;;;15.60;97.10;;;;;;5052847;28;20492;-78
2022/01/09 08:05:15;;;;;;;4.30;1.00;;;15.10;98.40;;;;;;5054350;28;20082;-78
2022/01/09 08:07:41;;;;;;;7.45;1.45;;;14.90;99.00;;;;;;5054046;28;20032;-77
2022/01/09 08:10:08;;;;;;;8.07;1.92;;;15.10;98.60;;;;;;5053937;28;20029;-80
2022/01/09 08:12:34;;;;;;;9.45;1.40;;;15.20;98.90;;;;;;5035733;28;20107;-77
2022/01/09 08:15:00;;;;;;;9.23;1.60;;;15.50;98.60;;;;;;5053830;28;20068;-77
2022/01/09 08:17:26;;;;;;;11.07;1.60;;;15.60;98.10;;;;;;5035684;28;20021;-77
2022/01/09 08:19:52;;;;;;;5.50;1.40;;;15.60;98.40;;;;;;5053584;28;20797;-77
2022/01/09 08:22:18;;;;;;;7.10;1.50;;;15.60;98.50;;;;;;5053373;28;20468;-76
2022/01/09 08:24:45;;;;;;;9.53;1.60;;;15.50;98.50;;;;;;5054528;28;20052;-78
2022/01/09 08:27:11;;;;;;;;;;;15.50;98.80;;;;;;5054383;28;20029;-78
2022/01/09 08:29:40;;;;;;;7.65;1.33;;;15.30;99.30;;;;;;5053667;28;20097;-77
2022/01/09 08:32:07;;;;;;;7.55;1.65;;;15.30;99.00;;;;;;5053508;28;20059;-77
2022/01/09 08:34:34;;;;;;;9.18;1.52;;;15.20;99.30;;;;;;5053464;28;20017;-77
2022/01/09 08:37:00;;;;;;;8.02;1.38;;;14.90;99.80;;;;;;5053575;28;20446;-76
2022/01/09 08:39:26;;;;;;;11.60;1.75;;;14.90;99.90;;;;;;5051922;28;20035;-77
2022/01/09 08:41:52;;;;;;;9.43;1.90;;;14.40;99.90;;;;;;5053319;28;20060;-78
2022/01/09 08:44:18;;;;;;;6.23;1.40;;;14.50;99.90;;;;;;5053469;28;20021;-78
2022/01/09 08:46:44;;;;;;;8.87;1.70;;;14.60;99.90;;;;;;5053252;28;20268;-79
2022/01/09 08:49:10;;;;;;;9.03;1.60;;;14.70;99.90;;;;;;5052794;28;20027;-79
2022/01/09 08:51:36;;;;;;;9.32;1.52;;;14.80;99.90;;;;;;5053087;28;20039;-77
2022/01/09 08:54:02;;;;;;;13.40;2.25;;;14.60;99.90;;;;;;5053097;28;20104;-77
2022/01/09 08:56:29;;;;;;;10.35;1.63;;;14.40;99.90;;;;;;5053187;28;20484;-78
2022/01/09 08:58:57;;;;;;;11.07;1.83;;;14.50;99.90;;;;;;5035176;28;20037;-78
2022/01/09 09:01:23;;;;;;;8.02;1.75;;;14.30;99.90;;;;;;5034667;28;20094;-77
2022/01/09 09:03:50;;;;;;;15.50;1.90;;;14.20;99.90;;;;;;5052647;28;20076;-78
2022/01/09 09:06:17;;;;;;;10.85;1.70;;;14.10;99.90;;;;;;5052821;28;20028;-78
2022/01/09 09:08:43;;;;;;;12.40;1.50;;;14.30;99.90;;;;;;5052860;28;20047;-80
2022/01/09 09:11:11;;;;;;;7.20;1.33;;;14.10;99.90;;;;;;5052732;28;20040;-78
2022/01/09 09:13:39;;;;;;;6.15;1.33;;;14.30;99.90;;;;;;5052220;28;20029;-79
2022/01/09 09:16:05;;;;;;;10.05;1.52;;;14.40;99.90;;;;;;5052832;28;20066;-79
2022/01/09 09:18:32;;;;;;;11.57;1.58;;;14.50;99.90;;;;;;5053649;28;20025;-78
2022/01/09 09:20:58;;;;;;;11.52;1.63;;;14.50;99.90;;;;;;5053514;28;20071;-78
2022/01/09 09:23:25;;;;;;;8.48;1.58;;;14.60;99.90;;;;;;5053202;28;20044;-79
2022/01/09 09:25:51;;;;;;;7.40;2.10;;;14.70;99.90;;;;;;5053260;28;20044;-79
2022/01/09 09:28:18;;;;;;;7.75;1.30;;;14.80;99.90;;;;;;5053110;28;20028;-79
2022/01/09 09:30:44;;;;;;;7.65;1.50;;;14.90;99.90;;;;;;5053274;28;20080;-82
2022/01/09 09:33:10;;;;;;;12.88;1.73;;;14.90;99.90;;;;;;5053178;28;20051;-79
2022/01/09 09:35:37;;;;;;;9.65;1.83;;;15.00;99.90;;;;;;5053037;28;20109;-81
2022/01/09 09:38:04;;;;;;;;;;;14.90;99.90;;;;;;5053911;28;20051;-80
2022/01/09 09:40:30;;;;;;;10.13;1.60;;;14.90;99.90;;;;;;5053248;28;20345;-79
2022/01/09 09:42:57;;;;;;;7.90;1.70;;;14.90;99.90;;;;;;5052924;28;20377;-80
2022/01/09 09:45:26;;;;;;;9.15;1.50;;;14.10;99.90;;;;;;5053262;28;20041;-80
2022/01/09 09:47:52;;;;;;;12.05;1.70;;;14.00;99.90;;;;;;5052549;28;20013;-79
2022/01/09 09:50:33;;;;;;;11.32;1.80;;;14.30;99.90;;;;;;5052413;28;20163;-79
2022/01/09 09:53:01;;;;;;;11.35;1.70;;;14.40;99.90;;;;;;5051968;28;20041;-78
2022/01/09 09:55:28;;;;;;;16.10;2.40;;;14.60;99.90;;;;;;5052385;28;20025;-80
2022/01/09 09:57:54;;;;;;;;;;;14.80;99.90;;;;;;5052340;28;20167;-81
2022/01/09 10:00:21;;;;;;;9.02;1.67;;;15.10;99.90;;;;;;5052147;28;20284;-80
2022/01/09 10:02:50;;;;;;;10.15;2.33;;;14.90;99.90;;;;;;5051633;28;20056;-80
2022/01/09 10:05:19;;;;;;;11.73;2.08;;;14.70;99.90;;;;;;5051948;28;20072;-79
2022/01/09 10:07:46;;;;;;;8.32;1.77;;;14.80;99.90;;;;;;5051395;28;20465;-78
2022/01/09 10:10:16;;;;;;;;;;;15.20;99.90;;;;;;5052066;28;20028;-78
2022/01/09 10:12:44;;;;;;;12.02;2.42;;;15.20;99.90;;;;;;5051467;28;19908;-79
2022/01/09 10:15:17;;;;;;;10.30;1.90;;;15.40;99.90;;;;;;5051900;28;20449;-78
2022/01/09 10:17:49;;;;;;;12.13;2.13;;;15.40;99.90;;;;;;5051583;28;20059;-78
2022/01/09 10:20:17;;;;;;;9.73;1.90;;;15.30;99.90;;;;;;5050684;28;20126;-79
2022/01/09 10:22:46;;;;;;;12.77;2.10;;;15.30;99.90;;;;;;5050828;28;20021;-79
2022/01/09 10:25:31;;;;;;;12.40;2.15;;;15.50;99.90;;;;;;5050565;28;20361;-80
2022/01/09 10:27:59;;;;;;;9.27;2.15;;;15.60;99.90;;;;;;5051201;28;20043;-83
2022/01/09 10:30:29;;;;;;;13.02;2.08;;;15.50;99.90;;;;;;5033296;28;20052;-81
2022/01/09 10:32:58;;;;;;;13.20;2.10;;;15.40;99.90;;;;;;5051372;28;20498;-81
2022/01/09 10:35:26;;;;;;;12.15;2.08;;;15.70;99.90;;;;;;5051096;28;20052;-82
2022/01/09 10:38:27;;;;;;;11.93;2.00;;;16.10;99.90;;;;;;5051561;28;20031;-81
2022/01/09 10:40:57;;;;;;;8.43;2.08;;;16.40;99.90;;;;;;5025874;28;20505;-81
2022/01/09 10:43:36;;;;;;;11.82;2.47;;;16.60;99.90;;;;;;5050574;28;20028;-81
2022/01/09 10:46:03;;;;;;;11.45;2.17;;;16.50;99.90;;;;;;5050858;28;20072;-82
2022/01/09 10:48:32;;;;;;;9.30;1.98;;;16.10;99.90;;;;;;5050957;28;20127;-81
2022/01/09 10:50:59;;;;;;;13.60;2.40;;;15.60;99.90;;;;;;5050517;28;20476;-81
2022/01/09 10:53:29;;;;;;;10.80;2.40;;;15.50;99.90;;;;;;5051000;28;20049;-81
2022/01/09 10:56:13;;;;;;;13.38;2.20;;;15.30;99.90;;;;;;5032152;28;20128;-80
2022/01/09 10:58:43;;;;;;;10.35;2.10;;;15.40;99.90;;;;;;5050347;28;20025;-81
2022/01/09 11:01:28;;;;;;;15.43;2.45;;;15.40;99.90;;;;;;5050710;28;20086;-80
2022/01/09 11:04:04;;;;;;;14.77;2.28;;;15.20;99.90;;;;;;5049296;28;20087;-82
2022/01/09 11:06:32;;;;;;;11.75;2.10;;;15.00;99.90;;;;;;5032490;28;20118;-78
2022/01/09 11:09:00;;;;;;;7.88;1.63;;;14.60;99.90;;;;;;5049358;28;20126;-82
2022/01/09 11:11:35;;;;;;;5.97;1.50;;;14.30;99.90;;;;;;5049502;28;20066;-83
2022/01/09 11:14:04;;;;;;;12.23;2.08;;;13.60;99.90;;;;;;5028784;28;20381;-82
2022/01/09 11:16:38;;;;;;;8.20;1.65;;;12.90;99.90;;;;;;5050053;28;20155;-82
2022/01/09 11:19:16;;;;;;;6.68;1.45;;;13.00;99.90;;;;;;5050271;28;20064;-83
2022/01/09 11:21:47;;;;;;;7.28;1.30;;;13.00;99.90;;;;;;5050568;28;20070;-82
2022/01/09 11:24:37;;;;;;;8.57;1.92;;;12.90;99.90;;;;;;5050438;28;20118;-82
2022/01/09 11:27:20;;;;;;;10.05;1.80;;;13.00;99.90;;;;;;5050200;28;20021;-83
2022/01/09 11:30:04;;;;;;;10.32;1.80;;;13.20;99.90;;;;;;5050357;28;20041;-82
2022/01/09 11:32:56;;;;;;;17.90;5.03;;;13.50;99.90;;;;;;5050338;28;20098;-83
2022/01/09 11:36:11;;;;;;;38.00;8.55;;;13.60;99.90;;;;;;5029231;28;20443;-82
2022/01/09 11:38:55;;;;;;;7.30;1.90;;;13.60;99.90;;;;;;4974140;28;20090;-82
2022/01/09 11:41:26;;;;;;;10.07;2.63;;;13.80;99.90;;;;;;4974273;28;20031;-82
2022/01/09 11:43:52;;;;;;;12.75;2.17;;;14.00;99.90;;;;;;4973284;28;20078;-82
2022/01/09 11:46:19;;;;;;;12.83;2.50;;;14.30;99.90;;;;;;4973068;28;20146;-77
2022/01/09 11:48:51;;;;;;;15.05;3.05;;;14.50;99.90;;;;;;4956799;28;20399;-80
2022/01/09 11:51:20;;;;;;;11.45;2.40;;;14.50;99.90;;;;;;4973350;28;20065;-79
2022/01/09 11:54:17;;;;;;;16.27;2.30;;;14.20;99.90;;;;;;4973084;28;20071;-78
2022/01/09 11:56:53;;;;;;;;;;;14.00;99.90;;;;;;4973786;28;20034;-77
2022/01/09 11:59:27;;;;;;;16.17;2.30;;;13.70;99.90;;;;;;4973090;28;19906;-84
2022/01/09 12:02:29;;;;;;;10.00;1.65;;;13.50;99.90;;;;;;4972585;28;20459;-83
2022/01/09 12:05:01;;;;;;;10.40;1.55;;;13.40;99.90;;;;;;4972708;28;20026;-84
2022/01/09 12:07:33;;;;;;;10.23;2.00;;;13.50;99.90;;;;;;4972801;28;20131;-84
2022/01/09 12:10:02;;;;;;;12.45;1.98;;;13.60;99.90;;;;;;4973003;28;20094;-84
2022/01/09 12:12:36;;;;;;;12.32;2.22;;;13.80;99.90;;;;;;4972958;28;20052;-85
2022/01/09 12:15:06;;;;;;;9.00;1.45;;;14.10;99.90;;;;;;5040693;28;20090;-83
2022/01/09 12:17:38;;;;;;;12.48;1.85;;;14.20;99.90;;;;;;5053694;28;20056;-85
2022/01/09 12:20:12;;;;;;;10.48;1.65;;;14.40;99.90;;;;;;5053540;28;20330;-83
2022/01/09 12:25:32;;;;;;;11.93;1.95;;;14.60;99.90;;;;;;5053231;28;20526;-84
2022/01/09 12:28:14;;;;;;;8.98;1.88;;;14.80;99.90;;;;;;5053585;28;20075;-84
2022/01/09 12:33:16;;;;;;;13.60;2.70;;;14.50;99.90;;;;;;5054042;28;20021;-83
2022/01/09 12:35:49;;;;;;;11.73;2.77;;;14.50;99.90;;;;;;5033487;28;20052;-85
2022/01/09 12:38:20;;;;;;;11.00;1.70;;;14.40;99.90;;;;;;5033715;28;20068;-84
2022/01/09 12:40:47;;;;;;;13.73;2.95;;;14.20;99.90;;;;;;5033762;28;20025;-85
2022/01/09 12:43:21;;;;;;;19.20;2.63;;;14.30;99.90;;;;;;5033427;28;20060;-81
2022/01/09 12:45:47;;;;;;;13.10;2.08;;;14.50;99.90;;;;;;5033573;28;20037;-81
2022/01/09 12:48:24;;;;;;;14.90;2.10;;;14.60;99.90;;;;;;5014816;28;20144;-81
2022/01/09 12:50:51;;;;;;;17.90;2.08;;;14.50;99.90;;;;;;5038136;28;20115;-81
2022/01/09 12:53:19;;;;;;;;;;;14.50;99.90;;;;;;5053508;28;20025;-81
2022/01/09 12:55:54;;;;;;;13.65;2.00;;;14.30;99.90;;;;;;5053521;28;20315;-82
2022/01/09 12:58:32;;;;;;;17.10;2.53;;;14.10;99.90;;;;;;5053024;28;20033;-82
2022/01/09 13:01:01;;;;;;;13.93;2.20;;;13.80;99.90;;;;;;5053192;28;20067;-82
2022/01/09 13:03:31;;;;;;;17.60;2.70;;;13.20;99.90;;;;;;5034821;28;20103;-82
2022/01/09 13:06:06;;;;;;;18.98;2.83;;;13.20;99.90;;;;;;5052918;28;20066;-81
2022/01/09 13:08:33;;;;;;;18.75;2.53;;;13.20;99.90;;;;;;5052813;28;20025;-81